Time;durP1;ratioP1;P1;durP2;ratioP2;P2;SDS_P1;SDS_P2;PMS_P1;PMS_P2;Temp;Humidity;BMP_temperature;BMP_pressure;BME280_temperature;BME280_humidity;BME280_pressure;Samples;Min_cycle;Max_cycle;Signal;HPM_P1;HPM_P2
2023/04/07 00:00:11;;;;;;;21.10;12.23;;;;;;;;;;7390097;19;20006;-69
2023/04/07 00:02:36;;;;;;;25.08;13.25;;;;;;;;;;7391365;19;20547;-71
2023/04/07 00:05:02;;;;;;;22.83;12.68;;;;;;;;;;7391174;19;19994;-69
2023/04/07 00:07:27;;;;;;;23.10;12.57;;;;;;;;;;7389915;19;20045;-69
2023/04/07 00:09:52;;;;;;;23.20;13.90;;;;;;;;;;7390764;19;20086;-69
2023/04/07 00:12:18;;;;;;;24.58;14.30;;;;;;;;;;7388316;19;20005;-70
2023/04/07 00:14:43;;;;;;;26.92;14.70;;;;;;;;;;7394593;19;20002;-70
2023/04/07 00:17:08;;;;;;;28.48;15.00;;;;;;;;;;7389389;19;20027;-70
2023/04/07 00:19:34;;;;;;;26.92;15.38;;;;;;;;;;7393279;19;20030;-70
2023/04/07 00:22:00;;;;;;;33.88;16.23;;;;;;;;;;7388053;19;20423;-70
2023/04/07 00:24:26;;;;;;;31.63;16.45;;;;;;;;;;7390016;19;20009;-69
2023/04/07 00:26:51;;;;;;;26.10;14.98;;;;;;;;;;7390407;19;20570;-69
2023/04/07 00:29:16;;;;;;;26.27;14.77;;;;;;;;;;7389833;19;20117;-70
2023/04/07 00:31:42;;;;;;;27.40;15.60;;;;;;;;;;7398016;19;19995;-69
2023/04/07 00:34:07;;;;;;;25.17;15.10;;;;;;;;;;7403186;19;20016;-69
2023/04/07 00:36:32;;;;;;;26.58;15.30;;;;;;;;;;7397777;19;20007;-68
2023/04/07 00:38:58;;;;;;;28.00;14.18;;;;;;;;;;7391164;19;19998;-71
2023/04/07 00:41:23;;;;;;;26.00;14.18;;;;;;;;;;7390768;19;19991;-70
2023/04/07 00:43:50;;;;;;;24.25;14.45;;;;;;;;;;7390095;19;20002;-69
2023/04/07 00:46:16;;;;;;;23.08;14.02;;;;;;;;;;7390055;19;20101;-69
2023/04/07 00:48:41;;;;;;;23.23;14.43;;;;;;;;;;7390076;19;20471;-70
2023/04/07 00:51:06;;;;;;;23.92;13.27;;;;;;;;;;7388005;19;20058;-69
2023/04/07 00:53:32;;;;;;;25.27;13.60;;;;;;;;;;7389429;19;20058;-69
2023/04/07 00:55:57;;;;;;;22.23;12.80;;;;;;;;;;7389497;19;19999;-69
2023/04/07 00:58:22;;;;;;;24.98;13.57;;;;;;;;;;7389026;19;20396;-70
2023/04/07 01:00:52;;;;;;;26.60;13.55;;;;;;;;;;7388082;19;20002;-70
2023/04/07 01:03:23;;;;;;;20.13;12.73;;;;;;;;;;7389946;19;20073;-70
2023/04/07 01:05:59;;;;;;;19.77;11.65;;;;;;;;;;7389673;19;20014;-69
2023/04/07 01:08:36;;;;;;;20.73;12.18;;;;;;;;;;7392762;19;19995;-69
2023/04/07 01:11:11;;;;;;;22.80;11.98;;;;;;;;;;7386299;19;20066;-69
2023/04/07 01:13:44;;;;;;;20.08;11.52;;;;;;;;;;7387699;19;19998;-69
2023/04/07 01:16:29;;;;;;;21.45;12.00;;;;;;;;;;7388505;19;20054;-70
2023/04/07 01:19:00;;;;;;;19.48;11.75;;;;;;;;;;7388705;19;19994;-70
2023/04/07 01:21:27;;;;;;;;;;;;;;;;;;7386413;19;19999;-68
2023/04/07 01:24:10;;;;;;;20.38;10.93;;;;;;;;;;7388835;19;19923;-70
2023/04/07 01:26:36;;;;;;;21.15;12.02;;;;;;;;;;7388618;19;20002;-69
2023/04/07 01:29:33;;;;;;;21.10;12.15;;;;;;;;;;7388345;19;20007;-70
2023/04/07 01:32:02;;;;;;;23.27;11.73;;;;;;;;;;7386635;19;20040;-70
2023/04/07 01:34:30;;;;;;;22.48;12.55;;;;;;;;;;7388398;19;20077;-70
2023/04/07 01:36:57;;;;;;;23.15;13.65;;;;;;;;;;7388261;19;19997;-70
2023/04/07 01:39:24;;;;;;;23.25;12.95;;;;;;;;;;7389916;19;20470;-70
2023/04/07 01:41:51;;;;;;;26.23;13.65;;;;;;;;;;7386552;19;20042;-70
2023/04/07 01:44:18;;;;;;;25.27;13.50;;;;;;;;;;7388500;19;20065;-70
2023/04/07 01:46:44;;;;;;;22.60;13.25;;;;;;;;;;7388873;19;20002;-70
2023/04/07 01:49:11;;;;;;;24.80;13.98;;;;;;;;;;7388709;19;20005;-70
2023/04/07 01:51:37;;;;;;;24.40;13.20;;;;;;;;;;7386832;19;20098;-70
2023/04/07 01:54:03;;;;;;;24.55;13.70;;;;;;;;;;7388272;19;20010;-69
2023/04/07 01:56:29;;;;;;;22.70;13.63;;;;;;;;;;7391369;19;19999;-69
2023/04/07 01:58:54;;;;;;;23.95;13.88;;;;;;;;;;7388073;19;19998;-70
2023/04/07 02:01:20;;;;;;;22.92;13.52;;;;;;;;;;7386676;19;20019;-68
2023/04/07 02:03:53;;;;;;;25.08;14.20;;;;;;;;;;7388301;19;20007;-71
2023/04/07 02:06:23;;;;;;;24.85;13.88;;;;;;;;;;7388257;19;20395;-71
2023/04/07 02:08:53;;;;;;;23.85;14.02;;;;;;;;;;7388424;19;20010;-70
2023/04/07 02:11:21;;;;;;;23.92;13.57;;;;;;;;;;7386099;19;20293;-70
2023/04/07 02:13:47;;;;;;;20.70;12.05;;;;;;;;;;7390703;19;20006;-69
2023/04/07 02:16:14;;;;;;;24.92;14.25;;;;;;;;;;7390260;19;20344;-70
2023/04/07 02:18:41;;;;;;;22.92;12.90;;;;;;;;;;7387343;19;19998;-70
2023/04/07 02:21:07;;;;;;;24.08;13.63;;;;;;;;;;7384158;19;20336;-69
2023/04/07 02:23:34;;;;;;;21.15;13.52;;;;;;;;;;7386922;19;20050;-69
2023/04/07 02:26:00;;;;;;;22.25;13.30;;;;;;;;;;7386612;19;20003;-70
2023/04/07 02:28:25;;;;;;;22.77;13.07;;;;;;;;;;7387150;19;20002;-69
2023/04/07 02:30:50;;;;;;;24.98;13.63;;;;;;;;;;7385171;19;20006;-70
2023/04/07 02:33:16;;;;;;;24.75;14.32;;;;;;;;;;7392426;19;20058;-71
2023/04/07 02:35:41;;;;;;;26.63;13.98;;;;;;;;;;7392398;19;20023;-69
2023/04/07 02:38:06;;;;;;;23.13;12.93;;;;;;;;;;7391836;19;20011;-70
2023/04/07 02:40:32;;;;;;;22.42;13.10;;;;;;;;;;7392839;19;20028;-70
2023/04/07 02:42:57;;;;;;;26.80;14.27;;;;;;;;;;7395046;19;20548;-70
2023/04/07 02:45:23;;;;;;;27.17;13.82;;;;;;;;;;7394020;19;20367;-70
2023/04/07 02:47:48;;;;;;;26.13;13.85;;;;;;;;;;7393801;19;20021;-71
2023/04/07 02:50:14;;;;;;;24.42;14.02;;;;;;;;;;7392799;19;20003;-70
2023/04/07 02:52:39;;;;;;;28.30;14.27;;;;;;;;;;7391633;19;20025;-69
2023/04/07 02:55:06;;;;;;;26.00;14.10;;;;;;;;;;7391909;19;20023;-70
2023/04/07 02:57:31;;;;;;;26.23;14.95;;;;;;;;;;7391630;19;20742;-70
2023/04/07 02:59:56;;;;;;;27.73;14.57;;;;;;;;;;7394589;19;20178;-69
2023/04/07 03:02:22;;;;;;;26.50;15.00;;;;;;;;;;7390262;19;20002;-68
2023/04/07 03:04:49;;;;;;;25.70;13.38;;;;;;;;;;7393888;19;19999;-70
2023/04/07 03:07:15;;;;;;;23.80;14.10;;;;;;;;;;7393070;19;20011;-70
2023/04/07 03:09:40;;;;;;;27.40;15.20;;;;;;;;;;7392857;19;20048;-68
2023/04/07 03:12:05;;;;;;;25.40;14.25;;;;;;;;;;7390001;19;20014;-69
2023/04/07 03:14:31;;;;;;;24.70;13.57;;;;;;;;;;7393025;19;19999;-70
2023/04/07 03:16:56;;;;;;;25.42;13.75;;;;;;;;;;7394270;19;19998;-71
2023/04/07 03:19:21;;;;;;;23.75;13.40;;;;;;;;;;7393018;19;20091;-70
2023/04/07 03:21:47;;;;;;;25.67;14.25;;;;;;;;;;7390256;19;20025;-70
2023/04/07 03:24:12;;;;;;;24.63;13.77;;;;;;;;;;7392482;19;20754;-69
2023/04/07 03:26:37;;;;;;;23.45;13.10;;;;;;;;;;7391056;19;20725;-70
2023/04/07 03:29:03;;;;;;;25.15;13.65;;;;;;;;;;7392596;19;19995;-70
2023/04/07 03:31:29;;;;;;;25.65;14.32;;;;;;;;;;7394338;19;20070;-70
2023/04/07 03:33:54;;;;;;;23.55;13.50;;;;;;;;;;7392811;19;20006;-70
2023/04/07 03:36:20;;;;;;;26.50;14.40;;;;;;;;;;7392419;19;19999;-70
2023/04/07 03:38:48;;;;;;;22.23;12.50;;;;;;;;;;7392409;19;20002;-70
2023/04/07 03:41:13;;;;;;;25.27;13.20;;;;;;;;;;7390356;19;20009;-70
2023/04/07 03:43:38;;;;;;;23.67;13.68;;;;;;;;;;7390290;19;19999;-68
2023/04/07 03:46:04;;;;;;;24.77;14.07;;;;;;;;;;7392471;19;20023;-71
2023/04/07 03:48:29;;;;;;;22.23;13.30;;;;;;;;;;7392173;19;20612;-71
2023/04/07 03:50:55;;;;;;;22.58;13.15;;;;;;;;;;7390659;19;20010;-70
2023/04/07 03:53:20;;;;;;;25.05;14.07;;;;;;;;;;7392775;19;20333;-69
2023/04/07 03:55:46;;;;;;;27.92;14.40;;;;;;;;;;7392400;19;19999;-69
2023/04/07 03:58:11;;;;;;;24.52;13.38;;;;;;;;;;7390274;19;19998;-71
2023/04/07 04:00:37;;;;;;;27.30;14.15;;;;;;;;;;7391141;19;20482;-70
2023/04/07 04:03:02;;;;;;;26.58;14.73;;;;;;;;;;7391923;19;20022;-69
2023/04/07 04:05:28;;;;;;;25.15;14.82;;;;;;;;;;7394635;19;20022;-70
2023/04/07 04:07:53;;;;;;;25.70;14.73;;;;;;;;;;7392212;19;20002;-69
2023/04/07 04:10:19;;;;;;;24.17;14.63;;;;;;;;;;7390488;19;20013;-69
2023/04/07 04:12:46;;;;;;;28.38;15.63;;;;;;;;;;7394029;19;20455;-69
2023/04/07 04:15:11;;;;;;;31.23;15.05;;;;;;;;;;7391998;19;20187;-69
2023/04/07 04:17:37;;;;;;;26.63;14.98;;;;;;;;;;7390421;19;20070;-69
2023/04/07 04:20:02;;;;;;;24.08;14.05;;;;;;;;;;7391853;19;20006;-69
2023/04/07 04:22:28;;;;;;;23.35;14.18;;;;;;;;;;7390900;19;20003;-69
2023/04/07 04:24:53;;;;;;;22.67;12.63;;;;;;;;;;7391087;19;20432;-70
2023/04/07 04:27:18;;;;;;;26.38;13.80;;;;;;;;;;7391275;19;19994;-69
2023/04/07 04:29:45;;;;;;;22.83;13.75;;;;;;;;;;7391096;19;19999;-69
2023/04/07 04:32:10;;;;;;;24.88;13.70;;;;;;;;;;7388222;19;20025;-68
2023/04/07 04:34:35;;;;;;;24.10;13.13;;;;;;;;;;7390631;19;20002;-70
2023/04/07 04:37:01;;;;;;;23.50;13.85;;;;;;;;;;7390045;19;20002;-69
2023/04/07 04:39:26;;;;;;;25.63;13.93;;;;;;;;;;7390153;19;20329;-70
2023/04/07 04:41:51;;;;;;;22.42;12.75;;;;;;;;;;7388705;19;20003;-70
2023/04/07 04:44:17;;;;;;;25.25;15.45;;;;;;;;;;7390360;19;20558;-69
2023/04/07 04:46:42;;;;;;;23.73;14.02;;;;;;;;;;7390233;19;20548;-69
2023/04/07 04:49:07;;;;;;;28.27;14.73;;;;;;;;;;7391352;19;20354;-69
2023/04/07 04:51:32;;;;;;;25.25;14.27;;;;;;;;;;7388078;19;20007;-71
2023/04/07 04:53:59;;;;;;;23.35;14.07;;;;;;;;;;7389120;19;20005;-69
2023/04/07 04:56:24;;;;;;;29.27;15.27;;;;;;;;;;7388155;19;19998;-69
2023/04/07 04:58:50;;;;;;;27.80;14.90;;;;;;;;;;7389604;19;20058;-69
2023/04/07 05:01:15;;;;;;;26.88;15.38;;;;;;;;;;7387796;19;20038;-69
2023/04/07 05:03:40;;;;;;;28.83;15.80;;;;;;;;;;7389471;19;20029;-70
2023/04/07 05:06:06;;;;;;;27.63;16.33;;;;;;;;;;7389495;19;20007;-70
2023/04/07 05:08:31;;;;;;;30.15;16.08;;;;;;;;;;7387393;19;20017;-70
2023/04/07 05:10:57;;;;;;;31.80;17.40;;;;;;;;;;7389588;19;20036;-69
2023/04/07 05:13:23;;;;;;;29.70;17.45;;;;;;;;;;7388561;19;19998;-70
2023/04/07 05:15:48;;;;;;;36.67;17.50;;;;;;;;;;7389244;19;20023;-70
2023/04/07 05:18:13;;;;;;;33.45;16.98;;;;;;;;;;7387369;19;20014;-71
2023/04/07 05:20:39;;;;;;;29.35;17.27;;;;;;;;;;7385661;19;20523;-69
2023/04/07 05:23:04;;;;;;;31.08;16.42;;;;;;;;;;7391453;19;20357;-68
2023/04/07 05:25:30;;;;;;;32.60;17.58;;;;;;;;;;7392410;19;20094;-70
2023/04/07 05:27:57;;;;;;;31.45;17.45;;;;;;;;;;7391827;19;19999;-69
2023/04/07 05:30:22;;;;;;;34.15;17.13;;;;;;;;;;7390451;19;20002;-70
2023/04/07 05:32:48;;;;;;;34.88;16.98;;;;;;;;;;7388448;19;20398;-70
2023/04/07 05:35:13;;;;;;;30.77;17.23;;;;;;;;;;7388452;19;20560;-69
2023/04/07 05:37:39;;;;;;;33.00;17.15;;;;;;;;;;7387391;19;20535;-68
2023/04/07 05:40:05;;;;;;;30.38;15.02;;;;;;;;;;7386057;19;19999;-69
2023/04/07 05:42:30;;;;;;;31.65;17.67;;;;;;;;;;7388579;19;19994;-70
2023/04/07 05:44:56;;;;;;;31.42;17.67;;;;;;;;;;7388173;19;20077;-70
2023/04/07 05:47:21;;;;;;;34.28;17.02;;;;;;;;;;7388068;19;20003;-70
2023/04/07 05:49:46;;;;;;;32.15;16.90;;;;;;;;;;7388215;19;20008;-69
2023/04/07 05:52:13;;;;;;;30.27;17.10;;;;;;;;;;7385888;19;20473;-69
2023/04/07 05:54:41;;;;;;;30.48;17.48;;;;;;;;;;7388541;19;19995;-69
2023/04/07 05:57:07;;;;;;;31.63;16.70;;;;;;;;;;7387153;19;19999;-69
2023/04/07 05:59:33;;;;;;;29.15;15.90;;;;;;;;;;7387914;19;20031;-70
2023/04/07 06:01:59;;;;;;;31.23;17.50;;;;;;;;;;7386127;19;20123;-70
2023/04/07 06:04:24;;;;;;;29.50;16.42;;;;;;;;;;7391715;19;19997;-68
2023/04/07 06:06:51;;;;;;;30.02;16.40;;;;;;;;;;7392145;19;20373;-69
2023/04/07 06:09:16;;;;;;;29.33;16.13;;;;;;;;;;7395308;19;20451;-69
2023/04/07 06:11:42;;;;;;;30.00;16.90;;;;;;;;;;7396870;19;20090;-69
2023/04/07 06:14:08;;;;;;;30.33;16.98;;;;;;;;;;7398651;19;19995;-69
2023/04/07 06:16:33;;;;;;;29.63;15.25;;;;;;;;;;7396754;19;20391;-69
2023/04/07 06:18:59;;;;;;;29.35;15.55;;;;;;;;;;7399303;19;20015;-68
2023/04/07 06:21:26;;;;;;;35.13;16.92;;;;;;;;;;7396536;19;20009;-69
2023/04/07 06:23:51;;;;;;;30.17;16.15;;;;;;;;;;7399447;19;20477;-70
2023/04/07 06:26:16;;;;;;;33.47;15.93;;;;;;;;;;7396912;19;19998;-69
2023/04/07 06:28:42;;;;;;;27.05;15.20;;;;;;;;;;7399245;19;20065;-69
2023/04/07 06:31:07;;;;;;;29.20;16.55;;;;;;;;;;7393145;19;20002;-69
2023/04/07 06:33:33;;;;;;;27.38;14.80;;;;;;;;;;7394858;19;19999;-71
2023/04/07 06:35:58;;;;;;;29.20;15.68;;;;;;;;;;7394840;19;20026;-69
2023/04/07 06:38:23;;;;;;;24.20;14.52;;;;;;;;;;7392220;19;20022;-70
2023/04/07 06:40:50;;;;;;;24.77;13.98;;;;;;;;;;7393316;19;20051;-70
2023/04/07 06:43:15;;;;;;;26.13;14.38;;;;;;;;;;7395179;19;20025;-71
2023/04/07 06:45:40;;;;;;;27.80;14.85;;;;;;;;;;7394927;19;20066;-70
2023/04/07 06:48:06;;;;;;;30.10;14.95;;;;;;;;;;7394853;19;20005;-70
2023/04/07 06:50:31;;;;;;;27.83;14.77;;;;;;;;;;7391557;19;20026;-71
2023/04/07 06:52:56;;;;;;;24.75;14.07;;;;;;;;;;7394388;19;20361;-70
2023/04/07 06:55:22;;;;;;;24.98;15.10;;;;;;;;;;7394316;19;20357;-70
2023/04/07 06:57:48;;;;;;;25.92;15.93;;;;;;;;;;7392344;19;19995;-69
2023/04/07 07:00:14;;;;;;;24.63;14.82;;;;;;;;;;7395619;19;20036;-70
2023/04/07 07:02:39;;;;;;;25.33;15.30;;;;;;;;;;7393992;19;20010;-71
2023/04/07 07:05:05;;;;;;;27.92;16.33;;;;;;;;;;7393750;19;20003;-70
2023/04/07 07:07:31;;;;;;;30.58;17.45;;;;;;;;;;7395815;19;20007;-70
2023/04/07 07:09:56;;;;;;;26.30;14.95;;;;;;;;;;7397511;19;20067;-70
2023/04/07 07:12:21;;;;;;;24.48;13.93;;;;;;;;;;7392441;19;19995;-68
2023/04/07 07:14:50;;;;;;;29.45;14.63;;;;;;;;;;7396939;19;19999;-71
2023/04/07 07:17:15;;;;;;;23.40;13.98;;;;;;;;;;7394806;19;20012;-69
2023/04/07 07:19:44;;;;;;;23.30;14.13;;;;;;;;;;7396593;19;19999;-69
2023/04/07 07:22:10;;;;;;;28.05;14.63;;;;;;;;;;7391016;19;20466;-69
2023/04/07 07:24:35;;;;;;;22.83;13.88;;;;;;;;;;7395887;19;20002;-70
2023/04/07 07:27:01;;;;;;;23.60;13.15;;;;;;;;;;7396043;19;20002;-69
2023/04/07 07:29:27;;;;;;;25.02;14.73;;;;;;;;;;7395599;19;20002;-69
2023/04/07 07:31:52;;;;;;;22.38;13.32;;;;;;;;;;7393397;19;19995;-69
2023/04/07 07:34:17;;;;;;;24.92;13.93;;;;;;;;;;7395299;19;20321;-71
2023/04/07 07:36:43;;;;;;;24.23;13.73;;;;;;;;;;7395685;19;20003;-70
2023/04/07 07:39:08;;;;;;;22.90;13.60;;;;;;;;;;7392697;19;19995;-69
2023/04/07 07:41:34;;;;;;;25.30;14.27;;;;;;;;;;7392213;19;20375;-69
2023/04/07 07:43:59;;;;;;;21.38;13.48;;;;;;;;;;7327478;19;20007;-70
2023/04/07 07:46:26;;;;;;;25.52;13.98;;;;;;;;;;7390020;19;20002;-69
2023/04/07 07:48:51;;;;;;;20.75;13.48;;;;;;;;;;7381021;19;20002;-72
2023/04/07 07:51:17;;;;;;;27.85;13.85;;;;;;;;;;7386312;19;20018;-72
2023/04/07 07:53:45;;;;;;;21.20;13.20;;;;;;;;;;7390226;19;20003;-72
2023/04/07 07:56:10;;;;;;;22.73;14.27;;;;;;;;;;7389745;19;20009;-70
2023/04/07 07:58:36;;;;;;;22.17;12.98;;;;;;;;;;7388730;19;19990;-70
2023/04/07 08:01:02;;;;;;;22.30;14.23;;;;;;;;;;7386170;19;20010;-70
2023/04/07 08:03:27;;;;;;;21.63;12.85;;;;;;;;;;7391782;19;20042;-69
2023/04/07 08:05:52;;;;;;;24.25;14.43;;;;;;;;;;7395080;19;20666;-70
2023/04/07 08:08:18;;;;;;;22.48;12.90;;;;;;;;;;7390207;19;20022;-72
2023/04/07 08:10:43;;;;;;;20.75;13.32;;;;;;;;;;7391546;19;20017;-71
2023/04/07 08:13:09;;;;;;;22.35;12.40;;;;;;;;;;7391443;19;19998;-71
2023/04/07 08:15:35;;;;;;;22.83;14.05;;;;;;;;;;7390886;19;20150;-72
2023/04/07 08:18:03;;;;;;;22.83;13.55;;;;;;;;;;7391668;19;20028;-71
2023/04/07 08:20:29;;;;;;;23.13;14.23;;;;;;;;;;7392907;19;20479;-70
2023/04/07 08:22:54;;;;;;;21.48;14.10;;;;;;;;;;7391993;19;19995;-70
2023/04/07 08:25:20;;;;;;;21.27;13.70;;;;;;;;;;7391707;19;20091;-70
2023/04/07 08:27:45;;;;;;;22.05;13.73;;;;;;;;;;7391409;19;20072;-70
2023/04/07 08:30:10;;;;;;;21.38;13.32;;;;;;;;;;7388018;19;20006;-70
2023/04/07 08:32:37;;;;;;;23.48;13.98;;;;;;;;;;7391768;19;19999;-70
2023/04/07 08:35:03;;;;;;;22.13;13.43;;;;;;;;;;7392586;19;20006;-71
2023/04/07 08:37:30;;;;;;;20.15;13.18;;;;;;;;;;7392106;19;20372;-71
2023/04/07 08:39:55;;;;;;;23.70;13.68;;;;;;;;;;7388823;19;19998;-70
2023/04/07 08:42:26;;;;;;;21.02;12.90;;;;;;;;;;7387603;19;20088;-69
2023/04/07 08:44:52;;;;;;;21.60;13.25;;;;;;;;;;7379574;19;20022;-69
2023/04/07 08:47:19;;;;;;;22.65;13.52;;;;;;;;;;7387477;19;20034;-69
2023/04/07 08:49:47;;;;;;;21.35;12.55;;;;;;;;;;7386081;19;20014;-69
2023/04/07 08:52:15;;;;;;;20.67;13.35;;;;;;;;;;7386222;19;20348;-70
2023/04/07 08:54:40;;;;;;;22.60;13.30;;;;;;;;;;7386126;19;20022;-70
2023/04/07 08:57:07;;;;;;;21.42;13.38;;;;;;;;;;7386997;19;20456;-69
2023/04/07 08:59:34;;;;;;;22.52;12.70;;;;;;;;;;7387094;19;20002;-70
2023/04/07 09:01:59;;;;;;;21.98;13.77;;;;;;;;;;7384697;19;20075;-70
2023/04/07 09:04:26;;;;;;;20.58;13.00;;;;;;;;;;7390526;19;20011;-69
2023/04/07 09:06:51;;;;;;;21.60;13.38;;;;;;;;;;7386772;19;20066;-70
2023/04/07 09:09:17;;;;;;;20.67;13.27;;;;;;;;;;7389394;19;20113;-69
2023/04/07 09:11:42;;;;;;;20.92;12.60;;;;;;;;;;7384732;19;20010;-70
2023/04/07 09:14:07;;;;;;;19.38;13.60;;;;;;;;;;7388115;19;19998;-70
2023/04/07 09:16:33;;;;;;;20.67;13.77;;;;;;;;;;7386016;19;20449;-69
2023/04/07 09:18:59;;;;;;;24.17;13.43;;;;;;;;;;7386326;19;20024;-68
2023/04/07 09:21:24;;;;;;;22.58;12.65;;;;;;;;;;7386206;19;20350;-69
2023/04/07 09:23:49;;;;;;;18.13;12.57;;;;;;;;;;7386608;19;20029;-69
2023/04/07 09:26:24;;;;;;;18.60;12.48;;;;;;;;;;7386670;19;20014;-70
2023/04/07 09:29:01;;;;;;;19.80;11.75;;;;;;;;;;7387262;19;20006;-70
2023/04/07 09:31:47;;;;;;;18.70;11.98;;;;;;;;;;7382641;19;20775;-69
2023/04/07 09:34:27;;;;;;;21.75;12.25;;;;;;;;;;7387743;19;20452;-70
2023/04/07 09:36:54;;;;;;;22.13;12.80;;;;;;;;;;7383304;19;20006;-70
2023/04/07 09:39:19;;;;;;;21.15;12.48;;;;;;;;;;7386385;19;20010;-70
2023/04/07 09:41:45;;;;;;;20.73;12.43;;;;;;;;;;7381505;19;20014;-71
2023/04/07 09:44:10;;;;;;;25.20;11.68;;;;;;;;;;7385981;19;20002;-69
2023/04/07 09:46:47;;;;;;;35.55;18.63;;;;;;;;;;7387414;19;19999;-70
2023/04/07 09:49:12;;;;;;;24.48;14.30;;;;;;;;;;7386187;19;20003;-70
2023/04/07 09:52:03;;;;;;;25.30;12.48;;;;;;;;;;7386020;19;20008;-69
2023/04/07 09:54:36;;;;;;;21.15;11.82;;;;;;;;;;7385866;19;20006;-70
2023/04/07 09:57:03;;;;;;;26.98;15.23;;;;;;;;;;7385099;19;20010;-69
2023/04/07 09:59:30;;;;;;;17.40;10.35;;;;;;;;;;7387734;19;20418;-70
2023/04/07 10:01:55;;;;;;;19.48;10.85;;;;;;;;;;7384338;19;20007;-70
2023/04/07 10:04:22;;;;;;;21.30;11.88;;;;;;;;;;7385584;19;20324;-70
2023/04/07 10:06:47;;;;;;;18.45;11.27;;;;;;;;;;7385553;19;20003;-69
2023/04/07 10:09:13;;;;;;;18.30;11.27;;;;;;;;;;7383726;19;20002;-69
2023/04/07 10:11:42;;;;;;;19.25;10.00;;;;;;;;;;7382748;19;20025;-69
2023/04/07 10:14:09;;;;;;;19.92;11.00;;;;;;;;;;7385713;19;20007;-69
2023/04/07 10:16:37;;;;;;;18.05;10.80;;;;;;;;;;7387691;19;20027;-70
2023/04/07 10:19:04;;;;;;;20.33;11.38;;;;;;;;;;7384403;19;20345;-69
2023/04/07 10:21:32;;;;;;;17.27;10.68;;;;;;;;;;7385719;19;20012;-70
2023/04/07 10:24:22;;;;;;;19.35;11.98;;;;;;;;;;7382607;19;20010;-70
2023/04/07 10:26:55;;;;;;;17.60;10.73;;;;;;;;;;7382181;19;20027;-70
2023/04/07 10:29:23;;;;;;;15.75;10.50;;;;;;;;;;7384687;19;20007;-70
2023/04/07 10:31:49;;;;;;;20.75;9.82;;;;;;;;;;7382910;19;20002;-69
2023/04/07 10:34:15;;;;;;;17.23;9.77;;;;;;;;;;7384509;19;20010;-70
2023/04/07 10:37:12;;;;;;;15.90;9.80;;;;;;;;;;7386310;19;20002;-72
2023/04/07 10:39:37;;;;;;;14.25;9.50;;;;;;;;;;7382800;19;20006;-70
2023/04/07 10:42:02;;;;;;;19.23;10.38;;;;;;;;;;7383100;19;20030;-70
2023/04/07 10:44:41;;;;;;;16.35;10.27;;;;;;;;;;7385144;19;20387;-71
2023/04/07 10:47:06;;;;;;;17.55;10.50;;;;;;;;;;7387109;19;20015;-70
2023/04/07 10:49:33;;;;;;;16.13;11.27;;;;;;;;;;7384668;19;20027;-69
2023/04/07 10:52:11;;;;;;;18.45;11.07;;;;;;;;;;7381311;19;20007;-68
2023/04/07 10:54:37;;;;;;;17.85;10.93;;;;;;;;;;7390343;19;20006;-70
2023/04/07 10:57:02;;;;;;;15.85;10.27;;;;;;;;;;7391018;19;20352;-70
2023/04/07 10:59:31;;;;;;;16.05;10.25;;;;;;;;;;7393284;19;20018;-70
2023/04/07 11:02:12;;;;;;;17.45;10.63;;;;;;;;;;7387823;19;20014;-69
2023/04/07 11:04:39;;;;;;;16.77;10.20;;;;;;;;;;7392312;19;20002;-70
2023/04/07 11:07:06;;;;;;;16.88;9.93;;;;;;;;;;7391415;19;20055;-69
2023/04/07 11:09:31;;;;;;;18.30;10.65;;;;;;;;;;7393588;19;20010;-69
2023/04/07 11:11:56;;;;;;;15.82;8.85;;;;;;;;;;7387424;19;20328;-69
2023/04/07 11:14:32;;;;;;;16.63;9.80;;;;;;;;;;7392819;19;20006;-69
2023/04/07 11:17:00;;;;;;;15.98;9.18;;;;;;;;;;7389144;19;20007;-71
2023/04/07 11:19:26;;;;;;;13.80;7.70;;;;;;;;;;7391536;19;20325;-69
2023/04/07 11:22:15;;;;;;;15.13;8.10;;;;;;;;;;7385740;19;19998;-70
2023/04/07 11:24:40;;;;;;;14.20;8.18;;;;;;;;;;7393053;19;20006;-69
2023/04/07 11:27:14;;;;;;;15.43;8.48;;;;;;;;;;7391541;19;20459;-70
2023/04/07 11:29:39;;;;;;;13.15;7.05;;;;;;;;;;7391617;19;20432;-71
2023/04/07 11:32:05;;;;;;;15.10;8.43;;;;;;;;;;7387148;19;20014;-70
2023/04/07 11:34:32;;;;;;;18.75;7.93;;;;;;;;;;7393002;19;20023;-71
2023/04/07 11:37:16;;;;;;;16.10;8.45;;;;;;;;;;7388104;19;20040;-71
2023/04/07 11:39:45;;;;;;;12.52;7.15;;;;;;;;;;7390582;19;20010;-68
2023/04/07 11:42:10;;;;;;;18.98;7.10;;;;;;;;;;7387490;19;20046;-70
2023/04/07 11:44:44;;;;;;;14.98;7.68;;;;;;;;;;7390307;19;20471;-69
2023/04/07 11:47:09;;;;;;;14.38;8.27;;;;;;;;;;7388875;19;20385;-69
2023/04/07 11:49:43;;;;;;;13.10;8.23;;;;;;;;;;7392075;19;20002;-69
2023/04/07 11:52:09;;;;;;;14.63;7.53;;;;;;;;;;7389259;19;20011;-69
2023/04/07 11:54:41;;;;;;;13.15;7.97;;;;;;;;;;7390476;19;20007;-69
2023/04/07 11:57:09;;;;;;;11.45;7.75;;;;;;;;;;7388343;19;20003;-69
2023/04/07 11:59:34;;;;;;;13.65;8.00;;;;;;;;;;7388195;19;20007;-69
2023/04/07 12:01:59;;;;;;;14.10;8.63;;;;;;;;;;7388021;19;20427;-70
2023/04/07 12:04:27;;;;;;;17.35;8.35;;;;;;;;;;7386941;19;20032;-69
2023/04/07 12:06:53;;;;;;;14.48;9.00;;;;;;;;;;7389488;19;20018;-69
2023/04/07 12:09:31;;;;;;;14.15;9.43;;;;;;;;;;7391073;19;20344;-71
2023/04/07 12:11:57;;;;;;;17.23;9.18;;;;;;;;;;7386794;19;20010;-70
2023/04/07 12:14:23;;;;;;;15.80;9.68;;;;;;;;;;7389427;19;20014;-70
2023/04/07 12:16:49;;;;;;;15.68;10.02;;;;;;;;;;7387496;19;20006;-70
2023/04/07 12:19:15;;;;;;;14.48;9.38;;;;;;;;;;7388705;19;20009;-70
2023/04/07 12:21:40;;;;;;;16.23;9.85;;;;;;;;;;7389246;19;20070;-71
2023/04/07 12:24:06;;;;;;;15.18;9.70;;;;;;;;;;7387894;19;20010;-68
2023/04/07 12:26:31;;;;;;;16.70;9.65;;;;;;;;;;7390566;19;19999;-71
2023/04/07 12:29:03;;;;;;;15.27;9.32;;;;;;;;;;7385072;19;20795;-69
2023/04/07 12:31:29;;;;;;;15.27;9.25;;;;;;;;;;7389551;19;20013;-70
2023/04/07 12:33:55;;;;;;;17.20;8.95;;;;;;;;;;7388044;19;19998;-68
2023/04/07 12:36:21;;;;;;;17.27;9.68;;;;;;;;;;7390274;19;20017;-70
2023/04/07 12:38:47;;;;;;;15.73;9.43;;;;;;;;;;7389266;19;20483;-70
2023/04/07 12:41:12;;;;;;;14.00;7.00;;;;;;;;;;7385100;19;20324;-70
2023/04/07 12:43:37;;;;;;;9.63;5.15;;;;;;;;;;7389486;19;20002;-71
2023/04/07 12:46:02;;;;;;;9.27;4.45;;;;;;;;;;7384951;19;20474;-69
2023/04/07 12:48:28;;;;;;;8.77;5.00;;;;;;;;;;7388693;19;20006;-68
2023/04/07 12:50:53;;;;;;;8.30;4.40;;;;;;;;;;7381861;19;20017;-70
2023/04/07 12:53:19;;;;;;;5.97;3.70;;;;;;;;;;7384451;19;20526;-70
2023/04/07 12:55:47;;;;;;;7.18;3.88;;;;;;;;;;7385866;19;20010;-69
2023/04/07 12:58:12;;;;;;;7.68;3.85;;;;;;;;;;7383451;19;20002;-69
2023/04/07 13:00:37;;;;;;;7.70;4.75;;;;;;;;;;7385073;19;20528;-70
2023/04/07 13:03:03;;;;;;;10.35;5.80;;;;;;;;;;7388674;19;19998;-70
2023/04/07 13:05:28;;;;;;;10.95;5.60;;;;;;;;;;7387571;19;20003;-70
2023/04/07 13:07:53;;;;;;;7.13;4.45;;;;;;;;;;7389591;19;20002;-70
2023/04/07 13:10:20;;;;;;;7.93;4.65;;;;;;;;;;7388773;19;19998;-69
2023/04/07 13:12:45;;;;;;;6.70;3.78;;;;;;;;;;7388515;19;20006;-68
2023/04/07 13:15:11;;;;;;;5.53;3.22;;;;;;;;;;7390249;19;20359;-73
2023/04/07 13:17:37;;;;;;;7.28;3.15;;;;;;;;;;7389397;19;19999;-69
2023/04/07 13:20:04;;;;;;;6.13;3.08;;;;;;;;;;7389642;19;20017;-69
2023/04/07 13:22:30;;;;;;;5.45;2.75;;;;;;;;;;7389284;19;20006;-69
2023/04/07 13:24:55;;;;;;;6.40;3.13;;;;;;;;;;7389288;19;20019;-69
2023/04/07 13:27:21;;;;;;;6.25;3.00;;;;;;;;;;7388470;19;20072;-69
2023/04/07 13:29:46;;;;;;;6.20;3.22;;;;;;;;;;7393136;19;19999;-68
2023/04/07 13:32:12;;;;;;;6.90;3.97;;;;;;;;;;7380710;19;20021;-69
2023/04/07 13:34:38;;;;;;;12.77;6.20;;;;;;;;;;7386385;19;19998;-69
2023/04/07 13:37:04;;;;;;;10.75;5.60;;;;;;;;;;7384971;19;20002;-70
2023/04/07 13:39:30;;;;;;;10.30;6.68;;;;;;;;;;7385736;19;20459;-70
2023/04/07 13:41:56;;;;;;;9.70;5.80;;;;;;;;;;7384588;19;20003;-70
2023/04/07 13:44:26;;;;;;;10.77;5.80;;;;;;;;;;7386033;19;20002;-69
2023/04/07 13:46:51;;;;;;;10.60;6.85;;;;;;;;;;7384179;19;20006;-70
2023/04/07 13:49:17;;;;;;;9.48;5.20;;;;;;;;;;7385656;19;20006;-71
2023/04/07 13:51:42;;;;;;;14.77;7.57;;;;;;;;;;7385773;19;20074;-70
2023/04/07 13:54:08;;;;;;;14.25;7.38;;;;;;;;;;7387370;19;20040;-71
2023/04/07 13:56:40;;;;;;;12.90;7.43;;;;;;;;;;7384474;19;20484;-72
2023/04/07 13:59:06;;;;;;;11.18;5.88;;;;;;;;;;7386554;19;20013;-70
2023/04/07 14:01:32;;;;;;;12.88;7.85;;;;;;;;;;7383644;19;20082;-70
2023/04/07 14:03:58;;;;;;;14.63;7.78;;;;;;;;;;7384218;19;20010;-71
2023/04/07 14:06:23;;;;;;;11.73;7.47;;;;;;;;;;7384189;19;20471;-70
2023/04/07 14:08:50;;;;;;;13.68;7.40;;;;;;;;;;7386661;19;20011;-70
2023/04/07 14:11:19;;;;;;;13.77;8.07;;;;;;;;;;7386076;19;20007;-69
2023/04/07 14:13:45;;;;;;;13.50;8.30;;;;;;;;;;7385748;19;20091;-70
2023/04/07 14:16:10;;;;;;;13.73;7.07;;;;;;;;;;7373403;19;20586;-70
2023/04/07 14:18:36;;;;;;;12.40;7.15;;;;;;;;;;7374526;19;20042;-70